Time;durP1;ratioP1;P1;durP2;ratioP2;P2;SDS_P1;SDS_P2;PMS_P1;PMS_P2;Temp;Humidity;BMP_temperature;BMP_pressure;BME280_temperature;BME280_humidity;BME280_pressure;Samples;Min_cycle;Max_cycle;Signal;HPM_P1;HPM_P2
2024/01/14 07:37:53;;;;;;;;;17.33;14.33;;;;;;;;5106601;27;13449;-76
2024/01/14 07:40:18;;;;;;;;;10.33;10.33;;;;;;;;5109346;28;8811;-76
2024/01/14 07:42:43;;;;;;;;;17.00;14.67;;;;;;;;5106734;28;11542;-75
2024/01/14 07:45:09;;;;;;;;;16.00;13.00;;;;;;;;5108045;28;8784;-74
2024/01/14 07:47:34;;;;;;;;;13.50;12.00;;;;;;;;5108335;28;8807;-75
2024/01/14 07:49:59;;;;;;;;;11.50;10.00;;;;;;;;5109526;28;8903;-74
2024/01/14 07:52:25;;;;;;;;;13.00;10.00;;;;;;;;5106766;28;8910;-77
2024/01/14 07:54:50;;;;;;;;;15.25;13.00;;;;;;;;5098166;28;8831;-76
2024/01/14 07:57:15;;;;;;;;;16.50;13.50;;;;;;;;5105145;28;8823;-76
2024/01/14 07:59:41;;;;;;;;;12.75;10.00;;;;;;;;5106991;28;8839;-75
2024/01/14 08:02:07;;;;;;;;;11.50;10.00;;;;;;;;5108313;28;8775;-75
2024/01/14 08:04:32;;;;;;;;;14.75;11.50;;;;;;;;5105776;28;8807;-74
2024/01/14 08:06:57;;;;;;;;;14.25;12.75;;;;;;;;5107665;28;11492;-74
2024/01/14 08:09:22;;;;;;;;;14.25;12.00;;;;;;;;5107927;28;8808;-74
2024/01/14 08:11:48;;;;;;;;;10.25;6.00;;;;;;;;5107936;28;8800;-76
2024/01/14 08:14:13;;;;;;;;;14.75;11.25;;;;;;;;5101937;28;8874;-76
2024/01/14 08:16:39;;;;;;;;;12.00;8.00;;;;;;;;5066341;28;9823;-74
2024/01/14 08:19:04;;;;;;;;;12.00;10.50;;;;;;;;5062277;28;8824;-74
2024/01/14 08:21:29;;;;;;;;;14.50;13.00;;;;;;;;5062481;28;8815;-76
2024/01/14 08:23:55;;;;;;;;;11.50;11.50;;;;;;;;5059032;28;8797;-76
2024/01/14 08:26:20;;;;;;;;;12.00;11.25;;;;;;;;5077030;28;8952;-77
2024/01/14 08:28:46;;;;;;;;;14.00;12.25;;;;;;;;5087445;28;8787;-73
2024/01/14 08:31:11;;;;;;;;;12.25;12.25;;;;;;;;5085900;28;9512;-74
2024/01/14 08:33:37;;;;;;;;;10.50;8.00;;;;;;;;5073973;28;9566;-74
2024/01/14 08:36:02;;;;;;;;;14.75;13.00;;;;;;;;5066299;28;8845;-75
2024/01/14 08:38:28;;;;;;;;;15.50;15.00;;;;;;;;5065524;28;8831;-74
2024/01/14 08:40:53;;;;;;;;;15.00;15.00;;;;;;;;5063789;28;8841;-73
2024/01/14 08:43:19;;;;;;;;;16.00;15.00;;;;;;;;5058035;28;8828;-78
2024/01/14 08:45:44;;;;;;;;;18.00;14.00;;;;;;;;5049374;28;8810;-73
2024/01/14 08:48:11;;;;;;;;;19.00;17.00;;;;;;;;5051298;28;8853;-73
2024/01/14 08:50:36;;;;;;;;;20.00;18.75;;;;;;;;5038157;28;8807;-77
2024/01/14 08:53:01;;;;;;;;;17.75;15.00;;;;;;;;5037555;28;11647;-77
2024/01/14 08:55:28;;;;;;;;;16.75;12.00;;;;;;;;5051307;28;8793;-77
2024/01/14 08:57:54;;;;;;;;;15.25;15.25;;;;;;;;5054531;28;8916;-76
2024/01/14 09:00:20;;;;;;;;;25.75;19.50;;;;;;;;5053214;28;11526;-78
2024/01/14 09:02:45;;;;;;;;;31.50;25.75;;;;;;;;5048041;28;8835;-75
2024/01/14 09:05:10;;;;;;;;;41.00;31.00;;;;;;;;5047165;28;8797;-73
2024/01/14 09:07:36;;;;;;;;;37.00;31.33;;;;;;;;5052536;28;8805;-73
2024/01/14 09:10:02;;;;;;;;;31.00;29.67;;;;;;;;5052540;28;8813;-72
2024/01/14 09:12:27;;;;;;;;;36.50;31.00;;;;;;;;5041296;28;8785;-74
2024/01/14 09:14:52;;;;;;;;;21.50;21.00;;;;;;;;5043808;28;9754;-72
2024/01/14 09:17:18;;;;;;;;;15.75;15.75;;;;;;;;5043914;28;8839;-75
2024/01/14 09:19:44;;;;;;;;;7.00;7.00;;;;;;;;5039045;28;8823;-73
2024/01/14 09:22:09;;;;;;;;;11.25;10.00;;;;;;;;5060716;28;8877;-73
2024/01/14 09:24:34;;;;;;;;;6.50;6.50;;;;;;;;5042468;28;8820;-72
2024/01/14 09:27:00;;;;;;;;;9.75;9.50;;;;;;;;5051027;28;8890;-75
2024/01/14 09:29:25;;;;;;;;;11.25;10.25;;;;;;;;5051296;28;8798;-75
2024/01/14 09:31:50;;;;;;;;;7.00;4.75;;;;;;;;5051317;28;8793;-74
2024/01/14 09:34:16;;;;;;;;;6.50;4.25;;;;;;;;5050415;28;8800;-77
2024/01/14 09:36:41;;;;;;;;;7.00;4.00;;;;;;;;5051959;28;8947;-75
2024/01/14 09:39:10;;;;;;;;;5.00;4.00;;;;;;;;5052415;28;8820;-75
2024/01/14 09:41:43;;;;;;;;;5.50;5.50;;;;;;;;5046444;28;8819;-75
2024/01/14 09:44:13;;;;;;;;;9.25;7.00;;;;;;;;5044182;28;11495;-73
2024/01/14 09:46:38;;;;;;;;;9.25;5.00;;;;;;;;5042423;28;11471;-74
2024/01/14 09:49:04;;;;;;;;;7.25;7.00;;;;;;;;5037035;28;11488;-73
2024/01/14 09:51:32;;;;;;;;;7.50;5.50;;;;;;;;5035012;28;8818;-74
2024/01/14 09:53:58;;;;;;;;;8.50;7.00;;;;;;;;5042382;28;8808;-71
2024/01/14 09:56:24;;;;;;;;;10.50;7.25;;;;;;;;5041482;28;11504;-70
2024/01/14 09:58:49;;;;;;;;;6.00;6.00;;;;;;;;5041740;28;11610;-70
2024/01/14 10:01:16;;;;;;;;;10.25;7.50;;;;;;;;5039400;28;8788;-77
2024/01/14 10:03:41;;;;;;;;;7.50;6.50;;;;;;;;5040911;28;8936;-73
2024/01/14 10:06:07;;;;;;;;;7.50;7.00;;;;;;;;5051320;28;12143;-73
2024/01/14 10:08:32;;;;;;;;;13.75;11.75;;;;;;;;5051945;28;9518;-75
2024/01/14 10:10:58;;;;;;;;;10.75;10.00;;;;;;;;5051986;28;8962;-75
2024/01/14 10:13:24;;;;;;;;;10.00;6.00;;;;;;;;5050113;28;8793;-80
2024/01/14 10:15:49;;;;;;;;;7.75;2.50;;;;;;;;5051079;28;8825;-73
2024/01/14 10:18:15;;;;;;;;;7.50;7.50;;;;;;;;5051696;28;8789;-71
2024/01/14 10:20:40;;;;;;;;;10.00;7.75;;;;;;;;5051586;28;8805;-73
2024/01/14 10:23:05;;;;;;;;;7.25;7.25;;;;;;;;5064916;28;8821;-71
2024/01/14 10:25:31;;;;;;;;;7.50;5.00;;;;;;;;5051393;28;8773;-73
2024/01/14 10:27:57;;;;;;;;;11.00;4.25;;;;;;;;5051607;28;8862;-74
2024/01/14 10:30:23;;;;;;;;;11.00;11.00;;;;;;;;5051737;28;8900;-74
2024/01/14 10:32:49;;;;;;;;;10.25;7.75;;;;;;;;5049605;28;8786;-75
2024/01/14 10:35:15;;;;;;;;;8.00;8.00;;;;;;;;5051347;28;11568;-73
2024/01/14 10:37:41;;;;;;;;;10.75;8.50;;;;;;;;5050859;28;11641;-73
2024/01/14 10:40:11;;;;;;;;;10.75;6.50;;;;;;;;5051337;28;8828;-76
2024/01/14 10:42:36;;;;;;;;;11.00;7.25;;;;;;;;5043393;28;8841;-72
2024/01/14 10:45:03;;;;;;;;;11.00;10.00;;;;;;;;5048336;28;11481;-72
2024/01/14 10:47:29;;;;;;;;;11.00;10.00;;;;;;;;5050386;28;8821;-73
2024/01/14 10:49:57;;;;;;;;;17.25;12.00;;;;;;;;5050808;28;11551;-74
2024/01/14 10:52:23;;;;;;;;;8.50;6.50;;;;;;;;5049698;28;11515;-75
2024/01/14 10:54:50;;;;;;;;;8.50;5.50;;;;;;;;5050488;28;11513;-72
2024/01/14 10:57:18;;;;;;;;;9.75;7.00;;;;;;;;5045451;28;12200;-75
2024/01/14 10:59:44;;;;;;;;;8.50;7.00;;;;;;;;5039269;28;11687;-74
2024/01/14 11:02:19;;;;;;;;;9.50;7.00;;;;;;;;5030890;28;11532;-73
2024/01/14 11:04:45;;;;;;;;;13.50;9.75;;;;;;;;5048275;28;11504;-73
2024/01/14 11:07:10;;;;;;;;;9.75;8.50;;;;;;;;5050423;28;11533;-72
2024/01/14 11:09:37;;;;;;;;;11.00;10.50;;;;;;;;5050847;28;8851;-72
2024/01/14 11:12:20;;;;;;;;;12.25;8.00;;;;;;;;5050328;28;8785;-72
2024/01/14 11:14:55;;;;;;;;;12.00;11.00;;;;;;;;5049620;28;11470;-73
2024/01/14 11:17:29;;;;;;;;;9.00;7.50;;;;;;;;5061641;28;11539;-73
2024/01/14 11:19:55;;;;;;;;;8.50;8.50;;;;;;;;5053638;28;12262;-75
2024/01/14 11:22:26;;;;;;;;;13.75;13.25;;;;;;;;5049934;28;11551;-79
2024/01/14 11:24:51;;;;;;;;;14.50;14.50;;;;;;;;5071015;28;11524;-76
2024/01/14 11:27:17;;;;;;;;;12.00;12.00;;;;;;;;5060901;28;11564;-76
2024/01/14 11:29:43;;;;;;;;;13.75;10.75;;;;;;;;5050411;28;8801;-77
2024/01/14 11:32:19;;;;;;;;;15.00;14.00;;;;;;;;5050423;28;12308;-75
2024/01/14 11:34:44;;;;;;;;;11.50;9.75;;;;;;;;5049612;28;8823;-74
2024/01/14 11:37:10;;;;;;;;;11.00;11.00;;;;;;;;5058078;28;11602;-77
2024/01/14 11:39:35;;;;;;;;;14.00;11.25;;;;;;;;5070497;28;8783;-74
2024/01/14 11:42:00;;;;;;;;;12.75;10.75;;;;;;;;5070212;28;8807;-74
2024/01/14 11:44:32;;;;;;;;;10.75;9.50;;;;;;;;5051029;28;8850;-74
2024/01/14 11:46:57;;;;;;;;;11.75;10.00;;;;;;;;5043770;28;8813;-76
2024/01/14 11:49:23;;;;;;;;;10.00;10.00;;;;;;;;5040605;28;11554;-81
2024/01/14 11:51:52;;;;;;;;;10.75;10.75;;;;;;;;5041793;28;8809;-76
2024/01/14 11:54:17;;;;;;;;;8.00;7.00;;;;;;;;5045721;28;11537;-77
2024/01/14 11:56:43;;;;;;;;;7.25;5.50;;;;;;;;5049817;28;11516;-74
2024/01/14 11:59:08;;;;;;;;;14.50;7.75;;;;;;;;5047257;28;8883;-77
2024/01/14 12:01:34;;;;;;;;;11.50;10.00;;;;;;;;5040176;28;8796;-75
2024/01/14 12:04:03;;;;;;;;;10.00;7.25;;;;;;;;5039920;28;8792;-81
2024/01/14 12:06:48;;;;;;;;;13.75;13.75;;;;;;;;5041107;28;11500;-75
2024/01/14 12:09:17;;;;;;;;;10.00;8.50;;;;;;;;5037963;28;11579;-76
2024/01/14 12:11:42;;;;;;;;;11.50;10.00;;;;;;;;5044112;28;11486;-77
2024/01/14 12:14:08;;;;;;;;;10.00;10.00;;;;;;;;5062390;28;12241;-74
2024/01/14 12:16:34;;;;;;;;;11.00;8.00;;;;;;;;5066587;28;8893;-77
2024/01/14 12:19:00;;;;;;;;;12.75;10.00;;;;;;;;5043708;28;8823;-75
2024/01/14 12:21:26;;;;;;;;;13.00;10.00;;;;;;;;5032593;28;9666;-74
2024/01/14 12:23:52;;;;;;;;;10.50;10.00;;;;;;;;5053063;28;8953;-75
2024/01/14 12:26:18;;;;;;;;;9.00;6.00;;;;;;;;5072160;28;11511;-74
2024/01/14 12:28:44;;;;;;;;;10.00;9.50;;;;;;;;5047417;28;12226;-75
2024/01/14 12:31:16;;;;;;;;;11.50;11.00;;;;;;;;5042291;28;9498;-74
2024/01/14 12:33:45;;;;;;;;;14.75;14.75;;;;;;;;5040870;28;8796;-74
2024/01/14 12:36:12;;;;;;;;;10.00;10.00;;;;;;;;5033233;28;12256;-75
2024/01/14 12:38:37;;;;;;;;;13.75;11.00;;;;;;;;5068393;28;11542;-76
2024/01/14 12:41:03;;;;;;;;;16.50;10.25;;;;;;;;5050718;28;11547;-75
2024/01/14 12:43:28;;;;;;;;;12.75;10.75;;;;;;;;5048735;28;9482;-75
2024/01/14 12:45:53;;;;;;;;;14.00;12.75;;;;;;;;5046740;28;8817;-75
2024/01/14 12:48:21;;;;;;;;;15.00;12.00;;;;;;;;5044086;28;9649;-76
2024/01/14 12:50:48;;;;;;;;;17.00;14.25;;;;;;;;5043989;28;8823;-74
2024/01/14 12:53:14;;;;;;;;;16.75;14.50;;;;;;;;5043559;28;11634;-75
2024/01/14 12:55:41;;;;;;;;;15.75;12.00;;;;;;;;5042898;28;11538;-75
2024/01/14 12:58:06;;;;;;;;;15.50;11.75;;;;;;;;5048660;28;11615;-73
2024/01/14 13:00:32;;;;;;;;;13.25;13.25;;;;;;;;5042744;28;11561;-76
2024/01/14 13:02:57;;;;;;;;;17.50;12.50;;;;;;;;5043453;28;8821;-74
2024/01/14 13:05:23;;;;;;;;;15.00;14.00;;;;;;;;5043053;28;8807;-75
2024/01/14 13:07:49;;;;;;;;;17.25;14.75;;;;;;;;5048664;28;8809;-76
2024/01/14 13:10:14;;;;;;;;;15.00;15.00;;;;;;;;5040651;28;8804;-75
2024/01/14 13:15:57;;;;;;;;;18.00;18.00;;;;;;;;5064964;28;8792;-77
2024/01/14 13:18:23;;;;;;;;;17.50;17.50;;;;;;;;5054277;28;12306;-90
2024/01/14 13:20:48;;;;;;;;;21.25;17.75;;;;;;;;5056451;28;11492;-87
2024/01/14 13:23:14;;;;;;;;;20.25;19.00;;;;;;;;5069946;28;11475;-84
2024/01/14 13:25:39;;;;;;;;;20.25;19.50;;;;;;;;5070584;28;8792;-77
2024/01/14 13:28:04;;;;;;;;;28.75;19.00;;;;;;;;5053817;28;8862;-77
2024/01/14 13:30:30;;;;;;;;;20.75;15.50;;;;;;;;5072975;28;8850;-73
2024/01/14 13:32:55;;;;;;;;;20.75;18.00;;;;;;;;5067057;28;10103;-77
2024/01/14 13:35:21;;;;;;;;;23.75;16.50;;;;;;;;5069032;28;8866;-72
2024/01/14 13:37:46;;;;;;;;;17.25;16.00;;;;;;;;5068713;28;8848;-72
2024/01/14 13:40:12;;;;;;;;;19.00;17.00;;;;;;;;5069654;28;8854;-72
2024/01/14 13:42:37;;;;;;;;;19.25;16.75;;;;;;;;5050835;28;9010;-72
2024/01/14 13:45:03;;;;;;;;;20.00;18.25;;;;;;;;5067893;28;11635;-71
2024/01/14 13:47:29;;;;;;;;;21.75;21.50;;;;;;;;5031470;28;8826;-70
2024/01/14 13:49:54;;;;;;;;;21.75;18.50;;;;;;;;5066692;28;9659;-71
2024/01/14 13:52:19;;;;;;;;;30.00;26.50;;;;;;;;5033261;28;8796;-73
2024/01/14 13:54:45;;;;;;;;;24.25;18.25;;;;;;;;5051224;28;8817;-73
2024/01/14 13:57:10;;;;;;;;;16.50;16.50;;;;;;;;5049671;28;8926;-74
2024/01/14 13:59:35;;;;;;;;;23.25;18.00;;;;;;;;5052770;28;8785;-73
2024/01/14 14:02:01;;;;;;;;;31.50;25.00;;;;;;;;5045610;28;8904;-71
2024/01/14 14:04:27;;;;;;;;;22.75;19.75;;;;;;;;5050229;28;8797;-72
2024/01/14 14:06:52;;;;;;;;;21.25;19.25;;;;;;;;5051627;28;8831;-70
2024/01/14 14:09:18;;;;;;;;;27.25;24.75;;;;;;;;5050586;28;8801;-79
2024/01/14 14:11:44;;;;;;;;;28.50;25.00;;;;;;;;5051811;28;8798;-73
2024/01/14 14:14:09;;;;;;;;;25.25;25.25;;;;;;;;5050217;28;8802;-72
2024/01/14 14:16:36;;;;;;;;;18.00;15.00;;;;;;;;5051859;28;11627;-71
2024/01/14 14:19:01;;;;;;;;;19.50;17.25;;;;;;;;5014085;28;11218;-71
2024/01/14 14:21:27;;;;;;;;;23.25;18.75;;;;;;;;5080319;28;11493;-72
2024/01/14 14:23:52;;;;;;;;;31.50;23.00;;;;;;;;5085203;28;9039;-72
2024/01/14 14:28:53;;;;;;;;;24.00;21.00;;;;;;;;5008185;28;8888;-74
2024/01/14 14:31:21;;;;;;;;;19.50;16.00;;;;;;;;5008827;28;11438;-70
2024/01/14 14:33:47;;;;;;;;;17.25;12.50;;;;;;;;5018596;28;10985;-72
2024/01/14 14:36:12;;;;;;;;;24.50;24.50;;;;;;;;5019516;28;11446;-73
2024/01/14 14:38:38;;;;;;;;;17.00;17.00;;;;;;;;5011809;28;8805;-73
2024/01/14 14:41:04;;;;;;;;;19.50;16.25;;;;;;;;5010657;28;8797;-73
2024/01/14 14:43:31;;;;;;;;;24.75;22.00;;;;;;;;5008943;28;8839;-75
2024/01/14 14:45:56;;;;;;;;;22.25;20.75;;;;;;;;4992556;28;11461;-76
2024/01/14 14:48:22;;;;;;;;;24.75;22.00;;;;;;;;5015698;28;11528;-79
2024/01/14 14:50:47;;;;;;;;;22.50;21.00;;;;;;;;5001443;28;8823;-71
2024/01/14 14:53:12;;;;;;;;;21.00;15.00;;;;;;;;4950954;28;10670;-68
2024/01/14 14:55:39;;;;;;;;;25.25;19.25;;;;;;;;4990858;28;9653;-71
2024/01/14 14:58:04;;;;;;;;;17.50;16.00;;;;;;;;4974731;28;8830;-70
2024/01/14 15:00:30;;;;;;;;;25.00;22.25;;;;;;;;4987437;28;11512;-72
2024/01/14 15:02:55;;;;;;;;;17.25;16.00;;;;;;;;4989714;28;8886;-72
2024/01/14 15:05:20;;;;;;;;;15.75;13.75;;;;;;;;4987424;28;8847;-70
2024/01/14 15:07:46;;;;;;;;;12.50;12.50;;;;;;;;4990014;28;8846;-70
2024/01/14 15:10:12;;;;;;;;;18.25;17.50;;;;;;;;4989930;28;8840;-73
2024/01/14 15:12:37;;;;;;;;;15.50;12.75;;;;;;;;4988398;28;8846;-78
2024/01/14 15:15:03;;;;;;;;;18.75;15.50;;;;;;;;4990910;28;8861;-77
2024/01/14 15:17:28;;;;;;;;;18.25;11.50;;;;;;;;5004814;28;8831;-70
2024/01/14 15:19:53;;;;;;;;;15.00;11.00;;;;;;;;4989946;28;11493;-70
2024/01/14 15:22:19;;;;;;;;;15.25;13.00;;;;;;;;4989176;28;8877;-69
2024/01/14 15:24:44;;;;;;;;;23.50;18.75;;;;;;;;4984347;28;8907;-75
2024/01/14 15:27:11;;;;;;;;;17.00;14.75;;;;;;;;4994666;23;8879;-73
2024/01/14 15:29:36;;;;;;;;;19.50;16.50;;;;;;;;4994321;28;8784;-72
2024/01/14 15:32:01;;;;;;;;;28.00;26.50;;;;;;;;4993029;28;11589;-74
2024/01/14 15:34:27;;;;;;;;;17.75;15.50;;;;;;;;4989940;28;8838;-72
2024/01/14 15:36:52;;;;;;;;;20.00;18.75;;;;;;;;4991575;28;8784;-73
2024/01/14 15:39:17;;;;;;;;;22.25;19.00;;;;;;;;4991044;28;8804;-72
2024/01/14 15:41:44;;;;;;;;;23.00;20.00;;;;;;;;4973620;28;8812;-71
2024/01/14 15:44:09;;;;;;;;;12.25;11.75;;;;;;;;4989603;28;8788;-75
2024/01/14 15:46:34;;;;;;;;;17.50;15.50;;;;;;;;4991049;28;12417;-70
2024/01/14 15:49:00;;;;;;;;;20.75;15.75;;;;;;;;4990846;28;9535;-72
2024/01/14 15:51:25;;;;;;;;;15.00;15.00;;;;;;;;4990997;28;8792;-71
2024/01/14 15:53:51;;;;;;;;;15.25;15.25;;;;;;;;4989398;28;8840;-72
2024/01/14 15:56:16;;;;;;;;;20.50;18.75;;;;;;;;4974246;28;9028;-73
2024/01/14 15:58:41;;;;;;;;;16.00;15.00;;;;;;;;4995544;28;8807;-73
2024/01/14 16:01:07;;;;;;;;;22.75;19.00;;;;;;;;4994589;28;8836;-74
2024/01/14 16:03:34;;;;;;;;;58.33;47.33;;;;;;;;4993037;28;8808;-76
2024/01/14 16:05:59;;;;;;;;;52.67;46.00;;;;;;;;4993992;28;8922;-76
2024/01/14 16:08:25;;;;;;;;;45.50;40.25;;;;;;;;4993706;28;11702;-76
2024/01/14 16:10:51;;;;;;;;;33.25;27.50;;;;;;;;4976750;28;8824;-75
2024/01/14 16:13:17;;;;;;;;;19.50;16.00;;;;;;;;4989560;28;8792;-76
2024/01/14 16:15:42;;;;;;;;;16.50;14.25;;;;;;;;4993914;28;11652;-75
2024/01/14 16:18:08;;;;;;;;;14.00;14.00;;;;;;;;4993350;28;8828;-75
2024/01/14 16:20:33;;;;;;;;;16.75;14.00;;;;;;;;4993693;28;8796;-76
2024/01/14 16:22:58;;;;;;;;;15.00;15.00;;;;;;;;4975443;28;8840;-75
2024/01/14 16:25:23;;;;;;;;;15.25;14.00;;;;;;;;4993620;28;8905;-75
2024/01/14 16:27:49;;;;;;;;;18.00;15.75;;;;;;;;4993525;28;8882;-76
2024/01/14 16:30:14;;;;;;;;;66.00;54.00;;;;;;;;4990487;28;8831;-77
2024/01/14 16:32:40;;;;;;;;;61.33;46.67;;;;;;;;4993747;28;9286;-74
2024/01/14 16:35:06;;;;;;;;;53.00;40.25;;;;;;;;4993409;28;8808;-74
2024/01/14 16:37:32;;;;;;;;;34.25;30.50;;;;;;;;4993123;28;8840;-74
2024/01/14 16:39:59;;;;;;;;;32.50;32.25;;;;;;;;4993458;28;8820;-75
2024/01/14 16:42:24;;;;;;;;;42.25;35.75;;;;;;;;4992549;28;11587;-73
2024/01/14 16:44:50;;;;;;;;;42.00;37.00;;;;;;;;4993678;28;12499;-72
2024/01/14 16:47:15;;;;;;;;;35.25;28.75;;;;;;;;4992065;28;8882;-74
2024/01/14 16:49:40;;;;;;;;;27.00;22.50;;;;;;;;4993152;28;8823;-76
2024/01/14 16:52:06;;;;;;;;;20.75;19.00;;;;;;;;4993492;28;9114;-73
2024/01/14 16:54:31;;;;;;;;;16.75;16.25;;;;;;;;4991627;28;8781;-73
2024/01/14 16:56:56;;;;;;;;;22.25;18.75;;;;;;;;4993236;28;8792;-74
2024/01/14 16:59:21;;;;;;;;;23.50;20.75;;;;;;;;4992900;28;8796;-75
2024/01/14 17:01:47;;;;;;;;;21.75;18.75;;;;;;;;4994945;28;8819;-77
2024/01/14 17:04:12;;;;;;;;;20.00;18.50;;;;;;;;4994056;28;8812;-76
2024/01/14 17:06:38;;;;;;;;;22.25;18.25;;;;;;;;4993292;28;8832;-76
2024/01/14 17:09:04;;;;;;;;;51.00;39.50;;;;;;;;4977723;28;8970;-76
2024/01/14 17:11:29;;;;;;;;;24.50;22.75;;;;;;;;4993569;28;11697;-73
2024/01/14 17:13:55;;;;;;;;;23.50;20.00;;;;;;;;4991622;28;8840;-73
2024/01/14 17:16:21;;;;;;;;;23.50;21.50;;;;;;;;4976066;28;8831;-73
2024/01/14 17:18:47;;;;;;;;;26.00;21.75;;;;;;;;4993196;28;8824;-75
2024/01/14 17:21:12;;;;;;;;;22.50;19.00;;;;;;;;4993123;28;11098;-75
2024/01/14 17:23:38;;;;;;;;;19.00;16.75;;;;;;;;4991666;28;8816;-74
2024/01/14 17:26:04;;;;;;;;;17.50;17.50;;;;;;;;4975785;28;8823;-73
2024/01/14 17:28:31;;;;;;;;;19.50;18.00;;;;;;;;4975519;28;8848;-74
2024/01/14 17:30:56;;;;;;;;;22.75;21.00;;;;;;;;4993435;28;11599;-73
2024/01/14 17:33:22;;;;;;;;;28.50;20.25;;;;;;;;4992978;28;12312;-76
2024/01/14 17:35:47;;;;;;;;;17.75;17.00;;;;;;;;4994863;28;8808;-73
2024/01/14 17:38:12;;;;;;;;;22.50;18.25;;;;;;;;4992827;28;8812;-72
2024/01/14 17:40:38;;;;;;;;;15.75;15.25;;;;;;;;4993060;28;8800;-72
2024/01/14 17:43:03;;;;;;;;;19.25;18.00;;;;;;;;4991325;28;8803;-73
2024/01/14 17:45:28;;;;;;;;;19.00;16.00;;;;;;;;4992985;28;8804;-72
2024/01/14 17:47:54;;;;;;;;;19.00;16.75;;;;;;;;4992692;28;8851;-71
2024/01/14 17:50:19;;;;;;;;;16.00;16.00;;;;;;;;4991320;28;8843;-75
2024/01/14 17:52:44;;;;;;;;;15.00;15.00;;;;;;;;4991502;28;8836;-71
2024/01/14 17:55:11;;;;;;;;;18.75;18.00;;;;;;;;4992882;28;8796;-72
2024/01/14 17:57:36;;;;;;;;;20.00;16.75;;;;;;;;4988173;28;8946;-72
2024/01/14 18:00:02;;;;;;;;;15.00;15.00;;;;;;;;4992406;28;11693;-72
2024/01/14 18:02:27;;;;;;;;;17.75;15.00;;;;;;;;4990945;28;8811;-73
2024/01/14 18:04:52;;;;;;;;;22.75;19.50;;;;;;;;4992631;28;8810;-73
2024/01/14 18:07:18;;;;;;;;;18.50;15.25;;;;;;;;4992324;28;8974;-74
2024/01/14 18:09:43;;;;;;;;;18.00;16.00;;;;;;;;4991624;28;8923;-75
2024/01/14 18:12:08;;;;;;;;;23.50;17.25;;;;;;;;4991894;28;8800;-76
2024/01/14 18:14:33;;;;;;;;;16.75;15.50;;;;;;;;4974393;28;8855;-74
2024/01/14 18:16:59;;;;;;;;;15.75;14.75;;;;;;;;4991817;28;8828;-77
2024/01/14 18:19:25;;;;;;;;;22.00;21.50;;;;;;;;4976067;28;8843;-75
2024/01/14 18:21:50;;;;;;;;;27.25;22.00;;;;;;;;4991565;28;11579;-76
2024/01/14 18:24:15;;;;;;;;;21.75;19.25;;;;;;;;4973761;28;8846;-75
2024/01/14 18:26:41;;;;;;;;;26.75;21.75;;;;;;;;4993613;28;8828;-74
2024/01/14 18:29:06;;;;;;;;;29.75;26.00;;;;;;;;4991896;28;8874;-73
2024/01/14 18:31:31;;;;;;;;;23.00;20.25;;;;;;;;4991973;28;8776;-73
2024/01/14 18:33:56;;;;;;;;;29.50;22.25;;;;;;;;4992198;28;8804;-72
2024/01/14 18:36:23;;;;;;;;;25.75;20.00;;;;;;;;4991834;28;8792;-73
2024/01/14 18:38:49;;;;;;;;;26.25;25.25;;;;;;;;4992083;28;8886;-73
2024/01/14 18:41:14;;;;;;;;;26.25;25.00;;;;;;;;4974278;28;11563;-73
2024/01/14 18:43:40;;;;;;;;;28.00;22.25;;;;;;;;4991250;28;8840;-74
2024/01/14 18:46:05;;;;;;;;;25.75;21.75;;;;;;;;4990962;28;8902;-72
2024/01/14 18:48:31;;;;;;;;;25.00;23.25;;;;;;;;4991202;28;8934;-73
2024/01/14 18:50:56;;;;;;;;;25.25;20.25;;;;;;;;4972521;28;8867;-75
2024/01/14 18:53:22;;;;;;;;;25.00;25.00;;;;;;;;4989640;28;8867;-72
2024/01/14 18:55:47;;;;;;;;;26.00;23.00;;;;;;;;4990856;28;8836;-72
2024/01/14 18:58:15;;;;;;;;;22.00;21.00;;;;;;;;4990762;28;8885;-70
2024/01/14 19:00:41;;;;;;;;;24.50;22.50;;;;;;;;4990285;28;8843;-72
2024/01/14 19:03:07;;;;;;;;;24.75;20.25;;;;;;;;4988255;28;11616;-70
2024/01/14 19:05:33;;;;;;;;;23.00;20.00;;;;;;;;4973878;28;11576;-70
2024/01/14 19:07:58;;;;;;;;;26.75;23.00;;;;;;;;4990753;28;8848;-72
2024/01/14 19:10:24;;;;;;;;;39.75;36.00;;;;;;;;4990968;28;8816;-77
2024/01/14 19:12:50;;;;;;;;;32.50;29.50;;;;;;;;4988349;28;8827;-71
2024/01/14 19:15:16;;;;;;;;;32.00;30.75;;;;;;;;4973340;28;8842;-72
2024/01/14 19:17:41;;;;;;;;;31.00;25.75;;;;;;;;4991330;28;11587;-72
2024/01/14 19:20:07;;;;;;;;;34.75;29.25;;;;;;;;4990664;28;8866;-72
2024/01/14 19:22:33;;;;;;;;;27.00;26.50;;;;;;;;4990139;28;8814;-73
2024/01/14 19:24:58;;;;;;;;;37.00;26.50;;;;;;;;4992421;28;8830;-73
2024/01/14 19:27:23;;;;;;;;;32.25;26.75;;;;;;;;4991175;28;11636;-73
2024/01/14 19:29:49;;;;;;;;;27.75;25.00;;;;;;;;4991155;28;8843;-72
2024/01/14 19:32:14;;;;;;;;;35.25;31.50;;;;;;;;4972959;28;8840;-72
2024/01/14 19:34:41;;;;;;;;;32.00;29.75;;;;;;;;4988454;28;8925;-73
2024/01/14 19:37:06;;;;;;;;;30.75;26.25;;;;;;;;4991053;28;9708;-73
2024/01/14 19:39:32;;;;;;;;;32.00;28.00;;;;;;;;4973504;28;11836;-72
2024/01/14 19:41:57;;;;;;;;;39.00;29.25;;;;;;;;4990855;28;8882;-72
2024/01/14 19:44:22;;;;;;;;;32.25;30.00;;;;;;;;4988796;28;8914;-70
2024/01/14 19:46:48;;;;;;;;;29.25;26.75;;;;;;;;5005806;28;8830;-70
2024/01/14 19:49:16;;;;;;;;;38.75;32.25;;;;;;;;4990888;28;9514;-72
2024/01/14 19:51:42;;;;;;;;;26.75;23.75;;;;;;;;4990504;28;8816;-72
2024/01/14 19:54:07;;;;;;;;;33.75;27.75;;;;;;;;4972389;28;11573;-74
2024/01/14 19:56:33;;;;;;;;;40.75;33.25;;;;;;;;4991368;28;8859;-71
2024/01/14 19:58:59;;;;;;;;;35.00;32.50;;;;;;;;4990888;28;8883;-74
2024/01/14 20:01:24;;;;;;;;;33.00;29.50;;;;;;;;4990805;28;11570;-70
2024/01/14 20:03:49;;;;;;;;;28.00;26.50;;;;;;;;4988392;28;8808;-71
2024/01/14 20:06:21;;;;;;;;;25.25;23.50;;;;;;;;4990315;28;8889;-72
2024/01/14 20:08:47;;;;;;;;;31.25;28.50;;;;;;;;4990880;28;9226;-72
2024/01/14 20:11:12;;;;;;;;;34.00;31.00;;;;;;;;4990453;28;11656;-73
2024/01/14 20:13:37;;;;;;;;;38.00;32.50;;;;;;;;4988465;28;8807;-72
2024/01/14 20:16:03;;;;;;;;;39.75;28.75;;;;;;;;4990661;28;8791;-71
2024/01/14 20:18:28;;;;;;;;;31.50;27.75;;;;;;;;4990870;28;8942;-71
2024/01/14 20:20:54;;;;;;;;;34.50;29.25;;;;;;;;4991136;28;8784;-73
2024/01/14 20:23:19;;;;;;;;;32.25;30.75;;;;;;;;4988805;28;8838;-74
2024/01/14 20:25:44;;;;;;;;;30.25;28.00;;;;;;;;4991771;28;8849;-72
2024/01/14 20:28:10;;;;;;;;;33.75;31.00;;;;;;;;4989564;28;8831;-71
2024/01/14 20:30:35;;;;;;;;;40.75;34.50;;;;;;;;4989989;28;8843;-72
2024/01/14 20:33:00;;;;;;;;;44.50;38.25;;;;;;;;4989751;28;8804;-68
2024/01/14 20:35:25;;;;;;;;;41.25;37.25;;;;;;;;4988682;28;8816;-72
2024/01/14 20:37:51;;;;;;;;;46.25;42.75;;;;;;;;4972429;28;9586;-74
2024/01/14 20:40:16;;;;;;;;;49.67;41.00;;;;;;;;4988979;28;8937;-73
2024/01/14 20:42:42;;;;;;;;;52.67;43.00;;;;;;;;4988273;28;8863;-71
2024/01/14 20:45:07;;;;;;;;;51.33;42.33;;;;;;;;4992434;28;8879;-71
2024/01/14 20:47:33;;;;;;;;;17.33;13.00;;;;;;;;4993252;28;8836;-71
2024/01/14 20:49:58;;;;;;;;;53.33;43.67;;;;;;;;4992958;28;8804;-72
2024/01/14 20:52:23;;;;;;;;;52.67;44.00;;;;;;;;4994294;28;8919;-70
2024/01/14 20:54:48;;;;;;;;;49.67;41.00;;;;;;;;4992313;28;8800;-70
2024/01/14 20:57:14;;;;;;;;;46.00;39.00;;;;;;;;4992652;28;8812;-70
2024/01/14 20:59:39;;;;;;;;;54.00;43.67;;;;;;;;4992567;28;8808;-69
2024/01/14 21:02:05;;;;;;;;;55.67;47.33;;;;;;;;4975069;28;8816;-70
2024/01/14 21:04:30;;;;;;;;;51.67;43.33;;;;;;;;4992417;28;8792;-70
2024/01/14 21:06:55;;;;;;;;;51.75;44.25;;;;;;;;4992257;28;8844;-69
2024/01/14 21:09:21;;;;;;;;;54.50;41.00;;;;;;;;4994464;28;8812;-70
2024/01/14 21:11:46;;;;;;;;;54.33;44.00;;;;;;;;4993166;28;8827;-71
2024/01/14 21:14:12;;;;;;;;;54.00;42.67;;;;;;;;4992928;28;8800;-70
2024/01/14 21:16:37;;;;;;;;;46.00;41.33;;;;;;;;4975455;28;8835;-70
2024/01/14 21:19:02;;;;;;;;;59.00;46.00;;;;;;;;4992917;28;8951;-70
2024/01/14 21:21:29;;;;;;;;;53.67;44.00;;;;;;;;4992095;28;8819;-69
2024/01/14 21:23:54;;;;;;;;;54.67;42.00;;;;;;;;4992933;28;8955;-69
2024/01/14 21:26:20;;;;;;;;;48.33;41.67;;;;;;;;4992494;28;12325;-70
2024/01/14 21:28:45;;;;;;;;;57.33;44.67;;;;;;;;4993049;28;8811;-70
2024/01/14 21:31:10;;;;;;;;;56.00;41.00;;;;;;;;4975375;28;8827;-69
2024/01/14 21:33:36;;;;;;;;;57.00;48.00;;;;;;;;4992820;28;8796;-70
2024/01/14 21:36:02;;;;;;;;;42.33;39.33;;;;;;;;4992677;28;8816;-69
2024/01/14 21:38:28;;;;;;;;;54.00;46.00;;;;;;;;4993172;28;8820;-70
2024/01/14 21:40:54;;;;;;;;;56.67;46.00;;;;;;;;4992434;28;11692;-69
2024/01/14 21:43:19;;;;;;;;;63.00;50.00;;;;;;;;4992624;28;8830;-70
2024/01/14 21:45:44;;;;;;;;;55.33;45.00;;;;;;;;4992535;28;8801;-70
2024/01/14 21:48:10;;;;;;;;;64.33;51.00;;;;;;;;4992327;28;8847;-70
2024/01/14 21:50:35;;;;;;;;;59.00;49.00;;;;;;;;4992287;28;8804;-71
2024/01/14 21:53:00;;;;;;;;;57.00;48.00;;;;;;;;4974439;28;8832;-72
2024/01/14 21:55:40;;;;;;;;;58.67;49.00;;;;;;;;4992314;28;9509;-71
2024/01/14 21:58:06;;;;;;;;;56.00;47.00;;;;;;;;4975459;28;8898;-77
2024/01/14 22:00:31;;;;;;;;;58.33;49.00;;;;;;;;4993129;28;8805;-69
2024/01/14 22:02:56;;;;;;;;;62.67;50.33;;;;;;;;4993124;28;8846;-69
2024/01/14 22:05:21;;;;;;;;;63.00;50.00;;;;;;;;4992519;28;8823;-69